createdAt,value
2023-03-18T00:01:04.010Z,97683.50
2023-03-18T00:03:31.516Z,97688.25
2023-03-18T00:06:08.463Z,97688.56
2023-03-18T00:08:34.900Z,97689.63
2023-03-18T00:11:01.285Z,97693.38
2023-03-18T00:13:27.907Z,97693.63
2023-03-18T00:15:54.256Z,97694.72
2023-03-18T00:18:20.579Z,97698.44
2023-03-18T00:20:46.896Z,97696.06
2023-03-18T00:23:13.222Z,97703.53
2023-03-18T00:25:39.543Z,97705.41
2023-03-18T00:28:06.433Z,97703.28
2023-03-18T00:30:33.540Z,97706.97
2023-03-18T00:33:00.298Z,97707.56
2023-03-18T00:35:30.827Z,97706.72
2023-03-18T00:37:58.375Z,97712.34
2023-03-18T00:40:30.825Z,97704.34
2023-03-18T00:43:08.057Z,97710.75
2023-03-18T00:45:37.027Z,97707.59
2023-03-18T00:48:03.750Z,97720.91
2023-03-18T00:50:30.293Z,97726.47
2023-03-18T00:52:56.752Z,97718.78
2023-03-18T00:55:23.080Z,97714.00
2023-03-18T00:57:49.413Z,97718.53
2023-03-18T01:00:17.010Z,97722.25
2023-03-18T01:02:44.134Z,97718.00
2023-03-18T01:05:13.398Z,97715.88
2023-03-18T01:07:39.719Z,97710.56
2023-03-18T01:10:06.455Z,97717.75
2023-03-18T01:12:33.227Z,97715.38
2023-03-18T01:14:59.783Z,97714.03
2023-03-18T01:17:26.105Z,97716.72
2023-03-18T01:19:52.423Z,97711.66
2023-03-18T01:22:19.460Z,97713.53
2023-03-18T01:24:47.095Z,97715.66
2023-03-18T01:27:13.922Z,97713.00
2023-03-18T01:29:40.579Z,97710.34
2023-03-18T01:32:06.939Z,97718.31
2023-03-18T01:34:34.179Z,97719.41
2023-03-18T01:37:01.506Z,97715.16
2023-03-18T01:39:27.843Z,97717.03
2023-03-18T01:41:54.156Z,97719.69
2023-03-18T01:44:21.707Z,97718.88
2023-03-18T01:46:48.552Z,97719.94
2023-03-18T01:49:18.983Z,97723.66
2023-03-18T01:51:46.657Z,97721.28
2023-03-18T01:54:12.981Z,97719.72
2023-03-18T01:56:39.508Z,97714.91
2023-03-18T01:59:06.070Z,97710.66
2023-03-18T02:01:51.465Z,97715.19
2023-03-18T02:04:17.873Z,97714.38
2023-03-18T02:06:44.219Z,97714.66
2023-03-18T02:09:10.558Z,97707.75
2023-03-18T02:11:39.090Z,97715.75
2023-03-18T02:14:05.567Z,97716.81
2023-03-18T02:16:34.304Z,97715.19
2023-03-18T02:19:09.851Z,97717.06
2023-03-18T02:21:49.798Z,97719.22
2023-03-18T02:24:22.092Z,97718.41
2023-03-18T02:27:12.188Z,97714.97
2023-03-18T02:29:38.601Z,97708.84
2023-03-18T02:32:05.975Z,97708.06
2023-03-18T02:34:32.454Z,97709.09
2023-03-18T02:36:58.825Z,97715.22
2023-03-18T02:39:25.136Z,97717.88
2023-03-18T02:41:51.573Z,97720.81
2023-03-18T02:44:18.460Z,97719.75
2023-03-18T02:46:52.191Z,97715.78
2023-03-18T02:49:18.836Z,97719.53
2023-03-18T02:51:45.222Z,97725.88
2023-03-18T02:54:12.776Z,97736.53
2023-03-18T02:56:39.456Z,97730.69
2023-03-18T02:59:06.014Z,97727.50
2023-03-18T03:01:32.463Z,97721.38
2023-03-18T03:03:58.837Z,97720.59
2023-03-18T03:06:25.810Z,97722.72
2023-03-18T03:08:52.232Z,97725.41
2023-03-18T03:11:19.038Z,97727.25
2023-03-18T03:13:45.821Z,97722.97
2023-03-18T03:16:15.660Z,97727.50
2023-03-18T03:18:42.334Z,97729.38
2023-03-18T03:21:09.133Z,97733.91
2023-03-18T03:23:35.622Z,97731.53
2023-03-18T03:26:02.555Z,97730.72
2023-03-18T03:28:28.880Z,97728.88
2023-03-18T03:30:55.745Z,97741.09
2023-03-18T03:33:22.862Z,97736.06
2023-03-18T03:35:49.242Z,97736.31
2023-03-18T03:38:16.071Z,97737.09
2023-03-18T03:40:42.456Z,97745.91
2023-03-18T03:43:10.796Z,97745.31
2023-03-18T03:45:37.681Z,97745.31
2023-03-18T03:48:04.124Z,97744.81
2023-03-18T03:50:30.771Z,97749.34
2023-03-18T03:52:57.415Z,97736.28
2023-03-18T03:55:23.756Z,97742.69
2023-03-18T03:57:50.193Z,97747.50
2023-03-18T04:00:18.530Z,97749.34
2023-03-18T04:02:45.024Z,97744.03
2023-03-18T04:05:12.491Z,97748.53
2023-03-18T04:07:38.953Z,97746.94
2023-03-18T04:10:05.560Z,97744.28
2023-03-18T04:12:31.873Z,97742.69
2023-03-18T04:14:58.174Z,97742.97
2023-03-18T04:17:24.597Z,97736.88
2023-03-18T04:19:50.927Z,97741.13
2023-03-18T04:22:18.200Z,97737.66
2023-03-18T04:24:44.882Z,97743.22
2023-03-18T04:27:11.595Z,97756.28
2023-03-18T04:29:37.982Z,97760.81
2023-03-18T04:32:04.370Z,97751.19
2023-03-18T04:34:30.765Z,97749.63
2023-03-18T04:36:58.062Z,97739.25
2023-03-18T04:39:24.363Z,97737.38
2023-03-18T04:41:50.767Z,97746.16
2023-03-18T04:44:17.382Z,97756.00
2023-03-18T04:46:43.737Z,97760.53
2023-03-18T04:49:10.503Z,97765.84
2023-03-18T04:51:37.840Z,97769.59
2023-03-18T04:54:04.146Z,97765.31
2023-03-18T04:56:31.308Z,97770.63
2023-03-18T04:58:57.612Z,97776.22
2023-03-18T05:01:24.350Z,97772.78
2023-03-18T05:03:50.949Z,97767.19
2023-03-18T05:06:21.762Z,97768.53
2023-03-18T05:08:48.504Z,97767.97
2023-03-18T05:11:15.227Z,97770.13
2023-03-18T05:13:41.618Z,97779.97
2023-03-18T05:16:08.806Z,97781.81
2023-03-18T05:18:35.619Z,97779.41
2023-03-18T05:21:02.627Z,97782.06
2023-03-18T05:23:29.411Z,97773.31
2023-03-18T05:25:55.768Z,97789.25
2023-03-18T05:28:22.363Z,97775.44
2023-03-18T05:30:48.674Z,97781.00
2023-03-18T05:33:15.002Z,97789.00
2023-03-18T05:35:41.513Z,97791.13
2023-03-18T05:38:07.905Z,97787.69
2023-03-18T05:40:34.296Z,97786.88
2023-03-18T05:43:00.614Z,97789.53
2023-03-18T05:45:27.473Z,97784.22
2023-03-18T05:47:53.815Z,97792.19
2023-03-18T05:50:30.250Z,97789.53
2023-03-18T05:52:56.584Z,97793.00
2023-03-18T05:55:23.417Z,97795.94
2023-03-18T05:57:49.727Z,97792.44
2023-03-18T06:00:18.568Z,97793.53
2023-03-18T06:02:44.906Z,97795.66
2023-03-18T06:05:12.146Z,97793.78
2023-03-18T06:07:38.473Z,97791.09
2023-03-18T06:10:05.122Z,97794.81
2023-03-18T06:12:31.441Z,97799.63
2023-03-18T06:14:58.103Z,97800.16
2023-03-18T06:17:24.421Z,97799.59
2023-03-18T06:19:51.090Z,97802.25
2023-03-18T06:22:17.509Z,97806.50
2023-03-18T06:24:43.832Z,97801.47
2023-03-18T06:27:10.185Z,97801.47
2023-03-18T06:29:36.873Z,97806.25
2023-03-18T06:32:03.409Z,97810.50
2023-03-18T06:34:29.725Z,97825.16
2023-03-18T06:36:56.861Z,97819.25
2023-03-18T06:39:23.206Z,97824.84
2023-03-18T06:41:49.523Z,97821.66
2023-03-18T06:44:15.841Z,97827.47
2023-03-18T06:46:44.000Z,97835.72
2023-03-18T06:49:11.168Z,97829.84
2023-03-18T06:51:37.496Z,97833.81
2023-03-18T06:54:03.881Z,97835.34
2023-03-18T06:56:30.601Z,97831.00
2023-03-18T06:58:58.128Z,97836.59
2023-03-18T07:01:24.508Z,97834.47
2023-03-18T07:03:51.513Z,97845.72
2023-03-18T07:06:18.721Z,97847.00
2023-03-18T07:08:45.784Z,97850.50
2023-03-18T07:11:12.325Z,97857.44
2023-03-18T07:13:38.971Z,97852.63
2023-03-18T07:16:05.424Z,97853.97
2023-03-18T07:18:32.073Z,97861.41
2023-03-18T07:20:58.755Z,97863.28
2023-03-18T07:23:25.093Z,97867.56
2023-03-18T07:25:51.508Z,97866.47
2023-03-18T07:28:17.855Z,97872.88
2023-03-18T07:30:44.954Z,97872.06
2023-03-18T07:33:11.297Z,97869.16
2023-03-18T07:35:40.862Z,97872.34
2023-03-18T07:38:10.304Z,97869.97
2023-03-18T07:40:37.613Z,97876.09
2023-03-18T07:43:04.656Z,97875.00
2023-03-18T07:45:31.465Z,97879.22
2023-03-18T07:47:58.275Z,97874.53
2023-03-18T07:50:24.626Z,97873.03
2023-03-18T07:52:52.004Z,97874.78
2023-03-18T07:55:18.408Z,97872.41
2023-03-18T07:57:44.954Z,97872.59
2023-03-18T08:00:12.466Z,97880.56
2023-03-18T08:02:38.935Z,97880.19
2023-03-18T08:05:06.967Z,97887.84
2023-03-18T08:07:34.692Z,97885.84
2023-03-18T08:10:01.647Z,97890.31
2023-03-18T08:12:35.534Z,97897.50
2023-03-18T08:15:11.617Z,97903.81
2023-03-18T08:17:38.190Z,97903.25
2023-03-18T08:20:05.171Z,97903.22
2023-03-18T08:22:31.502Z,97907.50
2023-03-18T08:24:58.211Z,97909.75
2023-03-18T08:27:24.732Z,97911.81
2023-03-18T08:29:51.032Z,97918.75
2023-03-18T08:32:17.354Z,97908.41
2023-03-18T08:34:43.743Z,97915.13
2023-03-18T08:37:10.181Z,97918.13
2023-03-18T08:39:36.488Z,97913.63
2023-03-18T08:42:04.171Z,97915.56
2023-03-18T08:44:31.002Z,97917.19
2023-03-18T08:46:57.767Z,97920.16
2023-03-18T08:49:24.694Z,97924.22
2023-03-18T08:51:51.692Z,97924.25
2023-03-18T08:54:18.152Z,97927.47
2023-03-18T08:56:44.464Z,97926.97
2023-03-18T08:59:10.821Z,97932.56
2023-03-18T09:01:37.429Z,97933.69
2023-03-18T09:04:03.798Z,97927.84
2023-03-18T09:06:30.453Z,97932.13
2023-03-18T09:08:57.487Z,97931.38
2023-03-18T09:11:23.825Z,97936.16
2023-03-18T09:13:50.192Z,97936.75
2023-03-18T09:16:17.316Z,97940.47
2023-03-18T09:18:45.259Z,97944.25
2023-03-18T09:21:12.247Z,97944.75
2023-03-18T09:23:38.569Z,97948.00
2023-03-18T09:26:05.375Z,97940.53
2023-03-18T09:28:32.075Z,97948.81
2023-03-18T09:30:58.408Z,97948.28
2023-03-18T09:33:25.507Z,97944.31
2023-03-18T09:35:51.889Z,97954.72
2023-03-18T09:38:19.526Z,97960.84
2023-03-18T09:40:59.434Z,97949.66
2023-03-18T09:43:35.889Z,97961.16
2023-03-18T09:46:05.461Z,97960.63
2023-03-18T09:48:47.289Z,97963.59
2023-03-18T09:51:28.263Z,97970.00
2023-03-18T09:54:13.516Z,97976.91
2023-03-18T09:56:40.089Z,97971.31
2023-03-18T09:59:12.873Z,97972.13
2023-03-18T10:01:39.321Z,97973.19
2023-03-18T10:04:14.174Z,97973.19
2023-03-18T10:06:42.945Z,97969.72
2023-03-18T10:09:36.076Z,97975.84
2023-03-18T10:12:25.581Z,97972.13
2023-03-18T10:14:51.944Z,97979.88
2023-03-18T10:17:41.674Z,97983.59
2023-03-18T10:20:17.354Z,97986.03
2023-03-18T10:23:02.004Z,97984.97
2023-03-18T10:25:34.873Z,97987.88
2023-03-18T10:28:18.116Z,97987.88
2023-03-18T10:30:50.760Z,97989.50
2023-03-18T10:33:23.301Z,97987.09
2023-03-18T10:36:08.628Z,97990.03
2023-03-18T10:38:36.322Z,97989.25
2023-03-18T10:41:02.652Z,97997.25
2023-03-18T10:43:31.790Z,97999.34
2023-03-18T10:46:02.385Z,98005.50
2023-03-18T10:48:38.764Z,98000.19
2023-03-18T10:51:24.574Z,98002.31
2023-03-18T10:53:58.699Z,98001.50
2023-03-18T10:56:25.210Z,98002.59
2023-03-18T10:58:52.707Z,97997.53
2023-03-18T11:01:21.181Z,97999.91
2023-03-18T11:03:50.547Z,98003.38
2023-03-18T11:06:25.241Z,97992.41
2023-03-18T11:08:52.168Z,97996.97
2023-03-18T11:11:28.593Z,97994.28
2023-03-18T11:13:56.052Z,97987.63
2023-03-18T11:16:30.532Z,97991.88
2023-03-18T11:18:57.314Z,97996.38
2023-03-18T11:21:24.168Z,97996.66
2023-03-18T11:24:10.190Z,97999.53
2023-03-18T11:26:43.994Z,97994.75
2023-03-18T11:29:11.056Z,97997.41
2023-03-18T11:31:51.190Z,97987.25
2023-03-18T11:34:19.704Z,97993.88
2023-03-18T11:37:04.978Z,98001.84
2023-03-18T11:39:31.880Z,97995.41
2023-03-18T11:41:59.297Z,97990.34
2023-03-18T11:44:27.924Z,97996.22
2023-03-18T11:46:55.544Z,97986.59
2023-03-18T11:49:22.796Z,97992.72
2023-03-18T11:52:04.394Z,97992.47
2023-03-18T11:54:47.754Z,97998.59
2023-03-18T11:57:20.279Z,97988.97
2023-03-18T11:59:56.360Z,97994.31
2023-03-18T12:02:42.898Z,98003.91
2023-03-18T12:05:26.576Z,97998.31
2023-03-18T12:08:00.745Z,98000.75
2023-03-18T12:10:29.822Z,98009.00
2023-03-18T12:13:05.154Z,97998.34
2023-03-18T12:15:34.686Z,97994.09
2023-03-18T12:18:36.625Z,97997.03
2023-03-18T12:21:20.616Z,97996.25
2023-03-18T12:23:51.145Z,97996.50
2023-03-18T12:26:30.368Z,97999.16
2023-03-18T12:29:09.549Z,97990.13
2023-03-18T12:31:39.923Z,97993.81
2023-03-18T12:34:10.962Z,97989.81
2023-03-18T12:36:37.768Z,97990.84
2023-03-18T12:39:06.814Z,97983.34
2023-03-18T12:41:37.307Z,97989.50
2023-03-18T12:44:07.793Z,97990.03
2023-03-18T12:46:36.027Z,97977.97
2023-03-18T12:49:22.291Z,97984.94
2023-03-18T12:51:57.765Z,97982.00
2023-03-18T12:54:25.951Z,97979.31
2023-03-18T12:56:55.455Z,97988.13
2023-03-18T12:59:27.591Z,97990.50
2023-03-18T13:02:05.144Z,97983.56
2023-03-18T13:04:31.921Z,97981.44
2023-03-18T13:07:15.940Z,97988.41
2023-03-18T13:09:43.682Z,97983.84
2023-03-18T13:12:20.497Z,97981.19
2023-03-18T13:15:08.200Z,97985.44
2023-03-18T13:17:38.928Z,97989.72
2023-03-18T13:20:16.344Z,97983.81
2023-03-18T13:22:42.621Z,97981.94
2023-03-18T13:25:28.967Z,97984.34
2023-03-18T13:28:14.021Z,97978.75
2023-03-18T13:30:48.627Z,97983.25
2023-03-18T13:33:38.441Z,97989.41
2023-03-18T13:36:23.474Z,97978.75
2023-03-18T13:38:55.280Z,97977.13
2023-03-18T13:41:51.214Z,97985.91
2023-03-18T13:44:25.378Z,97974.19
2023-03-18T13:46:57.179Z,97972.56
2023-03-18T13:49:24.246Z,97975.25
2023-03-18T13:51:51.921Z,97976.31
2023-03-18T13:54:18.824Z,97977.66
2023-03-18T13:56:50.662Z,97968.88
2023-03-18T13:59:35.317Z,97968.06
2023-03-18T14:02:21.028Z,97965.94
2023-03-18T14:04:50.798Z,97967.28
2023-03-18T14:07:23.533Z,97967.56
2023-03-18T14:09:52.955Z,97971.31
2023-03-18T14:12:20.562Z,97963.59
2023-03-18T14:14:56.724Z,97964.66
2023-03-18T14:17:25.765Z,97971.59
2023-03-18T14:19:55.410Z,97963.59
2023-03-18T14:22:25.434Z,97968.94
2023-03-18T14:25:10.928Z,97969.19
2023-03-18T14:27:47.377Z,97972.94
2023-03-18T14:30:32.046Z,97970.81
2023-03-18T14:32:58.361Z,97974.28
2023-03-18T14:35:28.467Z,97970.03
2023-03-18T14:37:57.674Z,97965.25
2023-03-18T14:40:24.005Z,97970.84
2023-03-18T14:42:56.651Z,97965.00
2023-03-18T14:45:27.591Z,97968.75
2023-03-18T14:47:54.514Z,97965.81
2023-03-18T14:50:27.591Z,97962.38
2023-03-18T14:52:55.672Z,97959.97
2023-03-18T14:55:23.698Z,97966.63
2023-03-18T14:57:50.878Z,97956.25
2023-03-18T15:00:17.410Z,97950.09
2023-03-18T15:02:44.080Z,97955.69
2023-03-18T15:05:12.278Z,97953.56
2023-03-18T15:07:39.452Z,97946.66
2023-03-18T15:10:10.825Z,97948.53
2023-03-18T15:12:37.392Z,97946.16
2023-03-18T15:15:05.048Z,97941.88
2023-03-18T15:17:31.377Z,97940.28
2023-03-18T15:19:59.908Z,97940.56
2023-03-18T15:22:28.345Z,97934.72
2023-03-18T15:25:04.625Z,97933.91
2023-03-18T15:27:31.802Z,97925.38
2023-03-18T15:29:58.544Z,97926.47
2023-03-18T15:32:26.384Z,97926.47
2023-03-18T15:34:53.718Z,97926.97
2023-03-18T15:37:26.149Z,97926.19
2023-03-18T15:39:56.087Z,97921.13
2023-03-18T15:42:22.404Z,97915.00
2023-03-18T15:44:54.500Z,97913.13
2023-03-18T15:47:23.373Z,97917.91
2023-03-18T15:49:53.449Z,97921.66
2023-03-18T15:52:20.970Z,97924.34
2023-03-18T15:54:47.762Z,97915.03
2023-03-18T15:57:28.311Z,97923.03
2023-03-18T15:59:54.673Z,97922.50
2023-03-18T16:02:22.501Z,97918.75
2023-03-18T16:04:48.844Z,97916.28
2023-03-18T16:07:18.951Z,97927.94
2023-03-18T16:09:45.687Z,97927.44
2023-03-18T16:12:19.238Z,97909.81
2023-03-18T16:14:46.197Z,97915.22
2023-03-18T16:17:12.681Z,97915.22
2023-03-18T16:19:39.004Z,97918.13
2023-03-18T16:22:05.889Z,97914.09
2023-03-18T16:24:32.207Z,97919.69
2023-03-18T16:26:58.665Z,97922.59
2023-03-18T16:29:29.858Z,97923.94
2023-03-18T16:31:56.204Z,97927.16
2023-03-18T16:34:22.525Z,97929.03
2023-03-18T16:36:50.566Z,97935.44
2023-03-18T16:39:17.660Z,97943.44
2023-03-18T16:41:44.450Z,97945.03
2023-03-18T16:44:12.000Z,97938.84
2023-03-18T16:46:45.345Z,97940.13
2023-03-18T16:49:16.224Z,97942.72
2023-03-18T16:51:42.588Z,97942.97
2023-03-18T16:54:29.403Z,97943.22
2023-03-18T16:56:57.369Z,97945.31
2023-03-18T17:02:13.039Z,97936.47
2023-03-18T17:04:40.613Z,97949.31
2023-03-18T17:07:06.917Z,97939.13
2023-03-18T17:09:33.205Z,97945.28
2023-03-18T17:12:03.801Z,97947.16
2023-03-18T17:14:37.718Z,97948.50
2023-03-18T17:17:08.179Z,97941.81
2023-03-18T17:19:35.410Z,97950.03
2023-03-18T17:22:01.982Z,97939.00
2023-03-18T17:24:28.263Z,97942.50
2023-03-18T17:26:54.998Z,97944.88
2023-03-18T17:29:25.121Z,97939.78
2023-03-18T17:31:54.391Z,97947.69
2023-03-18T17:34:20.673Z,97953.56
2023-03-18T17:36:47.034Z,97959.72
2023-03-18T17:39:13.552Z,97958.13
2023-03-18T17:41:39.908Z,97959.47
2023-03-18T17:44:24.903Z,97960.50
2023-03-18T17:46:52.131Z,97960.50
2023-03-18T17:49:20.684Z,97967.53
2023-03-18T17:51:48.775Z,97965.41
2023-03-18T17:54:21.918Z,97972.28
2023-03-18T17:56:48.244Z,97967.72
2023-03-18T17:59:15.375Z,97967.59
2023-03-18T18:01:42.368Z,97962.03
2023-03-18T18:04:09.334Z,97980.63
2023-03-18T18:06:36.087Z,97978.44
2023-03-18T18:09:02.579Z,97992.34
2023-03-18T18:11:29.330Z,98012.63
2023-03-18T18:13:59.265Z,97999.56
2023-03-18T18:16:26.302Z,98005.66
2023-03-18T18:18:52.639Z,97987.50
2023-03-18T18:21:19.881Z,97975.16
2023-03-18T18:23:46.464Z,97982.41
2023-03-18T18:26:13.652Z,97985.63
2023-03-18T18:28:40.989Z,97984.38
2023-03-18T18:31:09.194Z,97988.69
2023-03-18T18:33:35.730Z,97982.25
2023-03-18T18:36:02.066Z,97986.81
2023-03-18T18:38:28.550Z,97985.72
2023-03-18T18:40:55.755Z,97990.81
2023-03-18T18:43:22.389Z,97987.09
2023-03-18T18:45:48.900Z,97978.56
2023-03-18T18:48:16.116Z,97986.31
2023-03-18T18:50:43.609Z,97983.63
2023-03-18T18:53:17.462Z,97983.88
2023-03-18T18:55:43.968Z,97998.31
2023-03-18T18:58:16.057Z,97993.53
2023-03-18T19:00:42.397Z,97997.28
2023-03-18T19:03:10.896Z,97996.00
2023-03-18T19:05:37.917Z,97994.66
2023-03-18T19:08:04.699Z,97995.16
2023-03-18T19:10:31.150Z,97995.06
2023-03-18T19:12:57.464Z,97990.41
2023-03-18T19:15:24.174Z,97995.41
2023-03-18T19:17:50.506Z,97999.41
2023-03-18T19:20:27.143Z,98001.56
2023-03-18T19:22:53.656Z,98006.09
2023-03-18T19:25:19.980Z,98000.81
2023-03-18T19:27:46.583Z,97996.00
2023-03-18T19:30:19.496Z,98005.66
2023-03-18T19:32:46.032Z,98001.88
2023-03-18T19:35:12.885Z,97995.19
2023-03-18T19:37:39.596Z,97993.88
2023-03-18T19:40:14.524Z,97996.84
2023-03-18T19:42:41.035Z,98006.72
2023-03-18T19:45:08.740Z,98002.72
2023-03-18T19:47:35.072Z,98002.72
2023-03-18T19:50:01.411Z,98006.50
2023-03-18T19:52:27.935Z,98010.75
2023-03-18T19:54:54.599Z,98015.06
2023-03-18T19:57:29.786Z,98019.28
2023-03-18T19:59:57.195Z,98017.97
2023-03-18T20:02:27.364Z,98026.53
2023-03-18T20:04:54.593Z,98023.06
2023-03-18T20:07:21.673Z,98027.13
2023-03-18T20:09:48.051Z,98029.00
2023-03-18T20:12:26.553Z,98023.13
2023-03-18T20:14:53.097Z,98020.22
2023-03-18T20:17:33.507Z,98019.69
2023-03-18T20:19:59.842Z,98026.06
2023-03-18T20:22:28.092Z,98028.16
2023-03-18T20:24:54.482Z,98022.13
2023-03-18T20:27:21.032Z,98028.56
2023-03-18T20:29:47.364Z,98019.16
2023-03-18T20:32:13.764Z,98027.16
2023-03-18T20:34:41.510Z,98021.03
2023-03-18T20:37:13.010Z,98025.03
2023-03-18T20:39:39.328Z,98016.00
2023-03-18T20:42:06.026Z,98006.88
2023-03-18T20:44:32.377Z,98016.00
2023-03-18T20:46:58.742Z,98015.78
2023-03-18T20:49:25.305Z,98019.50
2023-03-18T20:51:51.659Z,98020.03
2023-03-18T20:54:19.007Z,98017.13
2023-03-18T20:56:45.889Z,98029.41
2023-03-18T20:59:12.321Z,98026.19
2023-03-18T21:01:38.714Z,98021.91
2023-03-18T21:04:05.635Z,98036.38
2023-03-18T21:06:32.064Z,98035.03
2023-03-18T21:08:58.384Z,98037.47
2023-03-18T21:11:29.669Z,98042.56
2023-03-18T21:13:56.280Z,98037.81
2023-03-18T21:16:23.425Z,98041.56
2023-03-18T21:18:49.954Z,98047.94
2023-03-18T21:21:20.754Z,98043.19
2023-03-18T21:23:47.113Z,98040.22
2023-03-18T21:26:13.435Z,98041.25
2023-03-18T21:28:39.799Z,98036.22
2023-03-18T21:31:06.226Z,98042.09
2023-03-18T21:33:33.145Z,98036.75
2023-03-18T21:35:59.535Z,98040.50
2023-03-18T21:38:27.021Z,98033.84
2023-03-18T21:40:53.526Z,98033.88
2023-03-18T21:43:32.529Z,98040.81
2023-03-18T21:45:59.177Z,98039.53
2023-03-18T21:48:25.745Z,98039.78
2023-03-18T21:50:52.131Z,98036.31
2023-03-18T21:53:19.478Z,98033.97
2023-03-18T21:55:46.005Z,98034.53
2023-03-18T21:58:16.657Z,98040.66
2023-03-18T22:00:43.317Z,98032.94
2023-03-18T22:03:13.558Z,98035.31
2023-03-18T22:05:39.868Z,98040.09
2023-03-18T22:08:06.209Z,98039.88
2023-03-18T22:10:32.602Z,98032.97
2023-03-18T22:12:58.898Z,98032.97
2023-03-18T22:15:25.093Z,98037.78
2023-03-18T22:17:51.668Z,98032.44
2023-03-18T22:20:17.942Z,98033.53
2023-03-18T22:22:44.248Z,98031.16
2023-03-18T22:25:16.384Z,98026.34
2023-03-18T22:27:42.680Z,98022.09
2023-03-18T22:30:09.245Z,98022.09
2023-03-18T22:32:45.247Z,98023.47
2023-03-18T22:35:13.849Z,98023.47
2023-03-18T22:37:40.328Z,98024.78
2023-03-18T22:40:06.905Z,98024.22
2023-03-18T22:42:33.184Z,98026.34
2023-03-18T22:44:59.471Z,98033.84
2023-03-18T22:47:25.956Z,98024.75
2023-03-18T22:49:52.357Z,98029.59
2023-03-18T22:52:22.658Z,98031.47
2023-03-18T22:54:49.472Z,98027.47
2023-03-18T22:57:17.175Z,98030.16
2023-03-18T22:59:43.491Z,98023.25
2023-03-18T23:02:13.541Z,98022.44
2023-03-18T23:04:39.888Z,98025.94
2023-03-18T23:07:06.319Z,98022.75
2023-03-18T23:09:34.719Z,98028.34
2023-03-18T23:12:03.703Z,98028.63
2023-03-18T23:14:30.063Z,98021.19
2023-03-18T23:16:56.549Z,98024.94
2023-03-18T23:19:22.877Z,98023.59
2023-03-18T23:21:49.229Z,98023.09
2023-03-18T23:24:15.668Z,98026.81
2023-03-18T23:26:41.973Z,98031.34
2023-03-18T23:29:08.949Z,98025.78
2023-03-18T23:31:35.528Z,98034.84
2023-03-18T23:34:01.867Z,98029.53
2023-03-18T23:36:28.621Z,98030.59
2023-03-18T23:38:54.938Z,98027.94
2023-03-18T23:41:21.252Z,98028.75
2023-03-18T23:43:47.731Z,98033.28
2023-03-18T23:46:14.073Z,98029.03
2023-03-18T23:48:40.552Z,98030.09
2023-03-18T23:51:06.860Z,98025.31
2023-03-18T23:53:33.189Z,98030.91
2023-03-18T23:55:59.505Z,98032.25
2023-03-18T23:58:25.958Z,98035.19
